Terminal Aerodrome Forecast
Issued by NWS

Home | Current Version | Previous Version | Text Only | Print | Product List | Glossary On
Versions: 1 2 3 4 5 6 7 8 9 10 11 12 13 14 15 16 17 18 19 20 21 22 23 24 25 26 27 28 29 30 31 32 33 34 35 36 37 38 39 40 41
607
FTUS41 KOKX 231945 AAB
TAFHPN
TAF AMD
KHPN 231945Z 2320/2418 06021G35KT 6SM -DZ BR SCT012 OVC025
      TEMPO 2320/2322 4SM -RAPL BKN012
     FM232200 05024G44KT 3SM RA BR OVC008
     FM240200 05027G49KT 2SM RA BR OVC008
     FM240500 03023G36KT 2SM +RA BR OVC006
     FM240900 01018G30KT 3SM RA BR OVC006
     FM241400 36015G24KT 3SM -RA BR OVC008
      AMD NOT SKED=

USA.gov is the U.S. government's official web portal to all federal, state and local government web resources and services.